Time;durP1;ratioP1;P1;durP2;ratioP2;P2;SDS_P1;SDS_P2;PMS_P1;PMS_P2;Temp;Humidity;BMP_temperature;BMP_pressure;BME280_temperature;BME280_humidity;BME280_pressure;Samples;Min_cycle;Max_cycle;Signal;HPM_P1;HPM_P2
2021/12/01 00:01:40;;;;;;;2.43;2.00;;;4.20;99.90;;;;;;5003916;28;20222;-69
2021/12/01 00:04:06;;;;;;;1.73;1.63;;;4.20;99.90;;;;;;4995977;28;20932;-69
2021/12/01 00:06:31;;;;;;;1.70;1.40;;;4.20;99.90;;;;;;5009718;28;20488;-70
2021/12/01 00:08:57;;;;;;;2.50;1.57;;;4.20;99.90;;;;;;4988305;28;20982;-70
2021/12/01 00:11:23;;;;;;;1.97;1.60;;;4.10;99.90;;;;;;5003113;28;20194;-70
2021/12/01 00:13:48;;;;;;;1.67;1.57;;;4.10;99.90;;;;;;4998918;28;20191;-70
2021/12/01 00:16:14;;;;;;;1.50;1.40;;;4.10;99.90;;;;;;4994965;28;20218;-67
2021/12/01 00:18:40;;;;;;;3.27;1.63;;;4.10;99.90;;;;;;5003767;28;20209;-70
2021/12/01 00:21:06;;;;;;;1.73;1.63;;;4.10;99.90;;;;;;4995660;28;20186;-71
2021/12/01 00:23:32;;;;;;;2.50;1.40;;;4.00;99.90;;;;;;4995374;28;20426;-71
2021/12/01 00:25:57;;;;;;;1.40;1.30;;;4.00;99.90;;;;;;4994763;28;21082;-70
2021/12/01 00:28:23;;;;;;;2.90;1.40;;;4.00;99.90;;;;;;4995826;28;20195;-69
2021/12/01 00:30:50;;;;;;;1.50;1.40;;;4.00;99.90;;;;;;5009207;28;20176;-69
2021/12/01 00:33:17;;;;;;;1.27;1.10;;;4.00;99.90;;;;;;4997913;28;20666;-70
2021/12/01 00:35:44;;;;;;;1.70;1.60;;;4.00;99.90;;;;;;5000743;28;20496;-71
2021/12/01 00:38:11;;;;;;;1.43;1.33;;;4.00;99.90;;;;;;4999605;28;20454;-70
2021/12/01 00:40:36;;;;;;;1.13;1.03;;;4.00;99.90;;;;;;4996298;28;20453;-70
2021/12/01 00:43:02;;;;;;;2.40;1.20;;;4.00;99.90;;;;;;4996171;28;20943;-71
2021/12/01 00:45:29;;;;;;;1.37;1.27;;;4.00;99.90;;;;;;5002634;28;20600;-71
2021/12/01 00:47:55;;;;;;;1.50;1.13;;;4.00;99.90;;;;;;4997492;28;20206;-71
2021/12/01 00:50:32;;;;;;;1.50;1.40;;;4.00;99.90;;;;;;4997501;28;20434;-71
2021/12/01 00:53:04;;;;;;;1.27;1.13;;;4.00;99.90;;;;;;4993059;28;20429;-71
2021/12/01 00:55:30;;;;;;;1.20;1.20;;;4.00;99.90;;;;;;5000147;28;20434;-71
2021/12/01 00:57:57;;;;;;;1.90;1.80;;;4.00;99.90;;;;;;5000445;28;20431;-70
2021/12/01 01:00:26;;;;;;;1.20;1.20;;;4.00;99.90;;;;;;5000797;28;20497;-72
2021/12/01 01:02:53;;;;;;;1.50;1.40;;;4.00;99.90;;;;;;4995165;28;20438;-71
2021/12/01 01:05:19;;;;;;;2.40;1.60;;;4.00;99.90;;;;;;4999714;28;20507;-70
2021/12/01 01:07:46;;;;;;;1.47;1.37;;;4.00;99.90;;;;;;4996761;28;20521;-70
2021/12/01 01:18:19;;;;;;;1.40;1.07;;;4.10;99.90;;;;;;5001411;28;20786;-71
2021/12/01 01:20:44;;;;;;;2.33;1.60;;;4.10;99.90;;;;;;4998894;28;20427;-71
2021/12/01 01:23:10;;;;;;;1.77;1.67;;;4.10;99.90;;;;;;4994037;28;20175;-71
2021/12/01 01:25:35;;;;;;;2.07;1.90;;;4.10;99.90;;;;;;4993831;28;20203;-71
2021/12/01 01:28:01;;;;;;;1.77;1.67;;;4.10;99.90;;;;;;4994433;28;20653;-72
2021/12/01 01:30:27;;;;;;;1.37;1.27;;;4.10;99.90;;;;;;4994219;28;20184;-70
2021/12/01 01:32:53;;;;;;;2.40;1.93;;;4.10;99.90;;;;;;4994610;28;20663;-71
2021/12/01 01:35:18;;;;;;;1.80;1.70;;;4.10;99.90;;;;;;5001537;28;20254;-71
2021/12/01 01:37:44;;;;;;;2.13;1.73;;;4.10;99.90;;;;;;5000980;28;20426;-71
2021/12/01 01:40:10;;;;;;;2.13;1.93;;;4.10;99.90;;;;;;5002732;28;20190;-71
2021/12/01 01:42:36;;;;;;;2.13;1.70;;;4.20;99.90;;;;;;5003589;28;20180;-72
2021/12/01 01:45:03;;;;;;;2.40;2.20;;;4.20;99.90;;;;;;4992982;28;20437;-71
2021/12/01 01:47:29;;;;;;;2.40;2.20;;;4.20;99.90;;;;;;5000589;28;20270;-71
2021/12/01 01:49:59;;;;;;;2.33;2.13;;;4.20;99.90;;;;;;5009103;28;20917;-71
2021/12/01 01:52:26;;;;;;;3.20;2.90;;;4.20;99.90;;;;;;4998956;28;20571;-71
2021/12/01 01:54:52;;;;;;;2.37;2.20;;;4.20;99.90;;;;;;4997334;28;20431;-71
2021/12/01 01:57:18;;;;;;;2.63;2.37;;;4.20;99.90;;;;;;4995636;28;20472;-71
2021/12/01 01:59:44;;;;;;;2.73;2.53;;;4.20;99.90;;;;;;5001012;28;20528;-71
2021/12/01 02:02:10;;;;;;;2.20;2.10;;;4.20;99.90;;;;;;4995931;28;20454;-71
2021/12/01 02:04:35;;;;;;;2.90;2.23;;;4.20;99.90;;;;;;4993617;28;20621;-70
2021/12/01 02:07:03;;;;;;;5.83;2.67;;;4.20;99.90;;;;;;4997115;28;20196;-71
2021/12/01 02:09:28;;;;;;;2.33;2.13;;;4.20;99.90;;;;;;4994267;28;20229;-72
2021/12/01 02:11:58;;;;;;;2.30;2.10;;;4.20;99.90;;;;;;4996080;28;20451;-71
2021/12/01 02:14:25;;;;;;;4.63;2.47;;;4.20;99.90;;;;;;5000678;28;20660;-71
2021/12/01 02:16:50;;;;;;;2.63;2.43;;;4.30;99.90;;;;;;5002170;28;20490;-69
2021/12/01 02:19:16;;;;;;;2.27;2.10;;;4.30;99.90;;;;;;4993631;28;21109;-71
2021/12/01 02:21:42;;;;;;;2.27;2.07;;;4.30;99.90;;;;;;5002375;28;20206;-71
2021/12/01 02:24:11;;;;;;;2.60;2.40;;;4.30;99.90;;;;;;4996173;28;20171;-71
2021/12/01 02:26:41;;;;;;;2.63;2.17;;;4.30;99.90;;;;;;4980884;28;20477;-71
2021/12/01 02:29:10;;;;;;;2.03;1.93;;;4.30;99.90;;;;;;5004075;28;20452;-72
2021/12/01 02:31:36;;;;;;;1.73;1.63;;;4.30;99.90;;;;;;5000676;28;20449;-71
2021/12/01 02:34:07;;;;;;;1.73;1.63;;;4.30;99.90;;;;;;4995068;28;20521;-71
2021/12/01 02:36:33;;;;;;;1.73;1.63;;;4.30;99.90;;;;;;4997097;28;20461;-71
2021/12/01 02:38:59;;;;;;;1.67;1.50;;;4.40;99.90;;;;;;4996826;28;20426;-71
2021/12/01 02:41:30;;;;;;;1.77;1.67;;;4.40;99.90;;;;;;5005914;28;20430;-70
2021/12/01 02:43:58;;;;;;;1.20;1.10;;;4.40;99.90;;;;;;5009872;28;20434;-72
2021/12/01 02:46:24;;;;;;;1.77;1.67;;;4.40;99.90;;;;;;4995824;28;20457;-71
2021/12/01 02:48:50;;;;;;;1.50;1.40;;;4.40;99.90;;;;;;4992809;28;20435;-71
2021/12/01 02:51:18;;;;;;;1.23;1.13;;;4.40;99.90;;;;;;4994923;28;20180;-71
2021/12/01 02:53:44;;;;;;;1.33;1.13;;;4.50;99.90;;;;;;4993054;28;20517;-70
2021/12/01 02:56:10;;;;;;;2.40;2.20;;;4.50;99.90;;;;;;4992414;28;20557;-69
2021/12/01 02:58:40;;;;;;;1.50;1.33;;;4.50;99.90;;;;;;4994682;28;20515;-71
2021/12/01 03:01:12;;;;;;;1.90;1.40;;;4.50;99.90;;;;;;5002091;28;20257;-71
2021/12/01 03:03:39;;;;;;;1.70;1.60;;;4.50;99.90;;;;;;4993447;28;20521;-69
2021/12/01 03:06:06;;;;;;;1.37;1.27;;;4.60;99.90;;;;;;5002558;28;20452;-71
2021/12/01 03:08:31;;;;;;;1.40;1.30;;;4.60;99.90;;;;;;4997791;28;20433;-71
2021/12/01 03:10:57;;;;;;;1.50;1.40;;;4.60;99.90;;;;;;4996085;28;20469;-71
2021/12/01 03:13:23;;;;;;;1.33;1.23;;;4.60;99.90;;;;;;4992541;28;20262;-71
2021/12/01 03:15:49;;;;;;;1.73;1.33;;;4.60;99.90;;;;;;5006819;28;20221;-71
2021/12/01 03:18:15;;;;;;;1.80;1.67;;;4.70;99.90;;;;;;4994823;28;20862;-72
2021/12/01 03:20:42;;;;;;;2.10;1.90;;;4.70;99.90;;;;;;4992190;28;20270;-71
2021/12/01 03:23:08;;;;;;;1.60;1.50;;;4.70;99.90;;;;;;5001885;28;20493;-69
2021/12/01 03:25:34;;;;;;;2.70;1.40;;;4.70;99.90;;;;;;5008374;28;20470;-71
2021/12/01 03:28:01;;;;;;;1.50;1.40;;;4.70;99.90;;;;;;4992463;28;20435;-71
2021/12/01 03:30:27;;;;;;;1.63;1.53;;;4.70;99.90;;;;;;4999893;28;20433;-70
2021/12/01 03:32:52;;;;;;;1.93;1.70;;;4.70;99.90;;;;;;4991838;28;20430;-71
2021/12/01 03:35:19;;;;;;;2.07;1.93;;;4.70;99.90;;;;;;5003501;28;20202;-69
2021/12/01 03:37:46;;;;;;;2.57;1.70;;;4.70;99.90;;;;;;4996194;28;20214;-72
2021/12/01 03:40:13;;;;;;;2.07;1.80;;;4.70;99.90;;;;;;4999066;28;20454;-71
2021/12/01 03:42:39;;;;;;;1.50;1.40;;;4.80;99.90;;;;;;5007508;28;20495;-72
2021/12/01 03:45:06;;;;;;;3.50;1.73;;;4.80;99.90;;;;;;4997592;28;20442;-72
2021/12/01 03:47:33;;;;;;;1.27;1.17;;;4.80;99.90;;;;;;4992537;28;20477;-71
2021/12/01 03:49:59;;;;;;;1.93;1.50;;;4.80;99.90;;;;;;5009408;28;20644;-71
2021/12/01 03:52:24;;;;;;;1.97;1.77;;;4.90;99.90;;;;;;4995593;28;20912;-71
2021/12/01 03:54:51;;;;;;;3.30;1.43;;;4.90;99.90;;;;;;4992121;28;20441;-71
2021/12/01 03:57:18;;;;;;;1.97;1.80;;;4.90;99.90;;;;;;4998675;28;20224;-71
2021/12/01 03:59:44;;;;;;;2.03;1.40;;;4.90;99.90;;;;;;4991830;28;20809;-72
2021/12/01 04:02:10;;;;;;;1.60;1.50;;;4.90;99.90;;;;;;4993010;28;20484;-72
2021/12/01 04:04:36;;;;;;;2.13;1.93;;;4.90;99.90;;;;;;4992119;28;20439;-71
2021/12/01 04:07:02;;;;;;;1.70;1.60;;;4.90;99.90;;;;;;4990394;28;20211;-72
2021/12/01 04:09:29;;;;;;;2.77;1.57;;;4.90;99.90;;;;;;4996516;28;20438;-72
2021/12/01 04:11:55;;;;;;;1.80;1.70;;;5.00;99.90;;;;;;4999295;28;20944;-72
2021/12/01 04:14:21;;;;;;;1.80;1.70;;;5.00;99.90;;;;;;4996684;28;20435;-71
2021/12/01 04:16:46;;;;;;;1.93;1.10;;;5.00;99.90;;;;;;4996450;28;20265;-70
2021/12/01 04:19:12;;;;;;;1.57;1.43;;;5.00;99.90;;;;;;5008088;28;20585;-72
2021/12/01 04:21:39;;;;;;;1.83;1.73;;;5.00;99.90;;;;;;4991513;28;20186;-72
2021/12/01 04:24:04;;;;;;;3.10;1.80;;;5.00;99.90;;;;;;4984629;28;20180;-72
2021/12/01 04:26:32;;;;;;;5.13;1.87;;;5.00;99.90;;;;;;4997186;28;20504;-71
2021/12/01 04:28:59;;;;;;;1.47;1.37;;;5.00;99.90;;;;;;4998957;28;20434;-72
2021/12/01 04:31:26;;;;;;;3.00;1.67;;;5.00;99.90;;;;;;4992161;28;20525;-71
2021/12/01 04:33:52;;;;;;;2.07;1.10;;;5.00;99.90;;;;;;4994542;28;20439;-71
2021/12/01 04:36:18;;;;;;;2.33;2.07;;;5.00;99.90;;;;;;5007394;28;20469;-71
2021/12/01 04:38:45;;;;;;;1.40;1.30;;;5.00;99.90;;;;;;5001638;28;20174;-72
2021/12/01 04:41:13;;;;;;;1.70;1.60;;;5.00;99.90;;;;;;4994636;28;20441;-71
2021/12/01 04:43:39;;;;;;;1.50;1.40;;;5.00;99.90;;;;;;5008659;28;20430;-72
2021/12/01 04:46:06;;;;;;;1.70;1.60;;;5.00;99.90;;;;;;4995548;28;20541;-70
2021/12/01 04:48:32;;;;;;;1.20;1.00;;;5.10;99.90;;;;;;4998387;28;20437;-70
2021/12/01 04:50:59;;;;;;;2.27;1.70;;;5.10;99.90;;;;;;4997333;28;20446;-71
2021/12/01 04:53:26;;;;;;;2.67;1.47;;;5.10;99.90;;;;;;4993587;28;20452;-72
2021/12/01 04:55:53;;;;;;;1.33;1.23;;;5.10;99.90;;;;;;4996924;28;20825;-71
2021/12/01 04:58:19;;;;;;;1.87;1.30;;;5.20;99.90;;;;;;5008891;28;20433;-71
2021/12/01 05:00:44;;;;;;;2.30;1.50;;;5.20;99.90;;;;;;5000330;28;20436;-71
2021/12/01 05:03:10;;;;;;;2.77;1.60;;;5.20;99.90;;;;;;5004734;28;20659;-72
2021/12/01 05:05:36;;;;;;;1.20;1.10;;;5.20;99.90;;;;;;4994455;28;20207;-72
2021/12/01 05:08:02;;;;;;;1.03;1.00;;;5.30;99.90;;;;;;5004969;28;20229;-71
2021/12/01 05:10:28;;;;;;;1.50;1.40;;;5.20;99.90;;;;;;5004011;28;20495;-72
2021/12/01 05:12:53;;;;;;;2.20;0.97;;;5.30;99.90;;;;;;4993712;28;20975;-71
2021/12/01 05:15:19;;;;;;;1.17;1.07;;;5.30;99.90;;;;;;5008586;28;20579;-72
2021/12/01 05:17:44;;;;;;;1.50;1.40;;;5.30;99.90;;;;;;4994973;28;20687;-71
2021/12/01 05:20:11;;;;;;;1.43;1.33;;;5.30;99.90;;;;;;4994744;28;20187;-72
2021/12/01 05:22:38;;;;;;;1.87;1.77;;;5.30;99.90;;;;;;5002492;28;20179;-71
2021/12/01 05:25:05;;;;;;;1.57;0.87;;;5.40;99.90;;;;;;4998353;28;20481;-71
2021/12/01 05:27:31;;;;;;;2.27;1.00;;;5.40;99.90;;;;;;4973048;28;1038928;-70
2021/12/01 05:29:56;;;;;;;1.20;0.80;;;5.40;99.90;;;;;;5009031;28;20650;-70
2021/12/01 05:32:22;;;;;;;1.83;1.20;;;5.40;99.90;;;;;;5001933;28;20191;-70
2021/12/01 05:34:48;;;;;;;0.93;0.93;;;5.40;99.90;;;;;;4996009;28;20262;-70
2021/12/01 05:37:14;;;;;;;1.23;0.87;;;5.50;99.90;;;;;;4992628;28;20212;-70
2021/12/01 05:39:41;;;;;;;1.73;1.27;;;5.50;99.90;;;;;;4998594;28;20442;-70
2021/12/01 05:42:07;;;;;;;1.03;0.90;;;5.50;99.90;;;;;;5002451;28;20229;-70
2021/12/01 05:44:34;;;;;;;1.70;0.97;;;5.50;99.90;;;;;;5004781;28;20432;-70
2021/12/01 05:47:00;;;;;;;1.27;0.70;;;5.60;99.90;;;;;;4994915;28;20468;-70
2021/12/01 05:49:26;;;;;;;1.33;0.87;;;5.60;99.90;;;;;;5002182;28;20496;-70
2021/12/01 05:51:52;;;;;;;1.37;1.27;;;5.70;99.90;;;;;;4998357;28;20466;-70
2021/12/01 05:54:18;;;;;;;1.10;0.87;;;5.70;99.90;;;;;;4998277;28;20646;-70
2021/12/01 05:56:43;;;;;;;1.30;1.20;;;5.80;99.90;;;;;;4997881;28;20506;-70
2021/12/01 05:59:09;;;;;;;0.70;0.70;;;5.80;99.90;;;;;;5006058;28;20180;-70
2021/12/01 06:01:34;;;;;;;0.97;0.80;;;5.80;99.90;;;;;;4994012;28;20250;-70
2021/12/01 06:04:01;;;;;;;0.60;0.60;;;5.90;99.90;;;;;;4991524;28;20187;-70
2021/12/01 06:06:26;;;;;;;0.80;0.80;;;5.90;99.90;;;;;;4993219;28;20211;-70
2021/12/01 06:08:52;;;;;;;1.57;1.10;;;5.90;99.90;;;;;;4995664;28;20438;-70
2021/12/01 06:11:20;;;;;;;0.93;0.83;;;5.90;99.90;;;;;;4983402;28;20239;-70
2021/12/01 06:13:47;;;;;;;2.20;0.73;;;5.90;99.90;;;;;;4984430;28;20773;-69
2021/12/01 06:16:12;;;;;;;1.77;1.00;;;5.90;99.90;;;;;;5003698;28;20469;-70
2021/12/01 06:18:38;;;;;;;0.90;0.90;;;6.00;99.90;;;;;;4997591;28;20441;-69
2021/12/01 06:21:04;;;;;;;1.27;0.70;;;6.00;99.90;;;;;;5002345;28;20178;-69
2021/12/01 06:23:29;;;;;;;0.87;0.87;;;6.10;99.90;;;;;;5000397;28;20186;-70
2021/12/01 06:25:55;;;;;;;0.80;0.80;;;6.10;99.90;;;;;;4993309;28;20218;-69
2021/12/01 06:28:20;;;;;;;1.20;1.10;;;6.10;99.90;;;;;;5003355;28;20238;-69
2021/12/01 06:30:46;;;;;;;1.70;0.90;;;6.10;99.90;;;;;;4993158;28;20617;-69
2021/12/01 06:33:11;;;;;;;1.23;1.13;;;6.40;99.90;;;;;;4999623;28;20179;-69
2021/12/01 06:35:37;;;;;;;0.90;0.70;;;6.40;99.90;;;;;;4992712;28;20294;-69
2021/12/01 06:38:04;;;;;;;1.27;1.13;;;6.40;99.90;;;;;;5000679;28;20573;-69
2021/12/01 06:40:30;;;;;;;0.70;0.70;;;6.50;99.90;;;;;;5005911;28;20182;-69
2021/12/01 06:42:56;;;;;;;0.90;0.70;;;6.40;99.90;;;;;;4995794;28;20446;-70
2021/12/01 06:45:22;;;;;;;0.60;0.60;;;6.30;99.90;;;;;;5009569;28;20939;-69
2021/12/01 06:47:48;;;;;;;0.70;0.70;;;6.30;99.90;;;;;;5005912;28;20432;-69
2021/12/01 06:50:15;;;;;;;1.00;0.70;;;6.20;99.90;;;;;;5005384;28;20171;-69
2021/12/01 06:52:40;;;;;;;3.07;1.90;;;6.20;99.90;;;;;;4999100;28;20435;-70
2021/12/01 06:55:08;;;;;;;1.90;1.60;;;6.20;99.90;;;;;;4996253;28;20441;-69
2021/12/01 06:57:34;;;;;;;1.00;0.80;;;6.20;99.90;;;;;;4998347;28;20661;-70
2021/12/01 07:00:00;;;;;;;1.83;0.70;;;6.20;99.90;;;;;;5004188;28;20495;-69
2021/12/01 07:02:26;;;;;;;0.70;0.70;;;6.30;99.90;;;;;;5003915;28;20425;-69
2021/12/01 07:04:52;;;;;;;1.30;1.10;;;6.30;99.90;;;;;;4996427;28;20446;-70
2021/12/01 07:07:18;;;;;;;0.93;0.77;;;6.30;99.90;;;;;;4996420;28;20836;-69
2021/12/01 07:09:45;;;;;;;0.80;0.60;;;6.30;99.90;;;;;;4998398;28;20650;-69
2021/12/01 07:12:12;;;;;;;1.23;0.80;;;6.30;99.90;;;;;;5003343;28;20244;-71
2021/12/01 07:14:37;;;;;;;0.90;0.80;;;6.40;99.90;;;;;;4998334;28;20573;-73
2021/12/01 07:17:03;;;;;;;1.70;1.60;;;6.40;99.90;;;;;;4996421;28;20563;-71
2021/12/01 07:19:29;;;;;;;4.53;1.20;;;6.40;99.90;;;;;;4995058;28;20176;-73
2021/12/01 07:21:54;;;;;;;2.30;1.53;;;6.40;99.90;;;;;;4983828;28;20176;-73
2021/12/01 07:24:20;;;;;;;1.43;0.90;;;6.40;99.90;;;;;;4995878;28;20258;-74
2021/12/01 07:26:46;;;;;;;0.73;0.50;;;6.40;99.90;;;;;;4994995;28;20243;-72
2021/12/01 07:29:12;;;;;;;0.80;0.80;;;6.50;99.90;;;;;;5008591;28;20873;-73
2021/12/01 07:31:37;;;;;;;1.67;1.10;;;6.50;99.90;;;;;;4991486;28;20471;-72
2021/12/01 07:34:04;;;;;;;1.40;1.30;;;6.50;99.90;;;;;;4995004;28;20191;-72
2021/12/01 07:36:29;;;;;;;4.43;1.63;;;6.50;99.90;;;;;;4999243;28;20199;-72
2021/12/01 07:38:57;;;;;;;1.33;0.90;;;6.50;99.90;;;;;;5004912;28;20430;-73
2021/12/01 07:41:23;;;;;;;0.83;0.63;;;6.60;99.90;;;;;;4996365;28;20175;-73
2021/12/01 07:43:48;;;;;;;1.17;1.00;;;6.60;99.90;;;;;;5006166;28;20433;-72
2021/12/01 07:46:14;;;;;;;1.67;1.57;;;6.60;99.90;;;;;;4984114;28;20210;-72
2021/12/01 07:48:40;;;;;;;7.03;1.30;;;6.70;99.90;;;;;;4981868;28;20241;-71
2021/12/01 07:51:06;;;;;;;1.30;1.20;;;6.70;99.90;;;;;;4958511;28;20446;-72
2021/12/01 07:53:32;;;;;;;1.30;1.20;;;6.70;99.90;;;;;;4995797;28;20179;-71
2021/12/01 07:55:58;;;;;;;1.70;0.70;;;6.70;99.90;;;;;;4994584;28;20462;-71
2021/12/01 07:58:25;;;;;;;2.17;1.33;;;6.70;99.90;;;;;;4983441;28;20815;-70
2021/12/01 08:00:51;;;;;;;1.63;0.90;;;6.70;99.90;;;;;;4992102;28;20474;-71
2021/12/01 08:03:17;;;;;;;0.60;0.57;;;6.80;99.90;;;;;;4990483;28;20472;-71
2021/12/01 08:05:42;;;;;;;0.80;0.80;;;6.80;99.90;;;;;;4996601;28;20211;-71
2021/12/01 08:08:10;;;;;;;1.47;0.50;;;6.80;99.90;;;;;;4995912;28;20179;-71
2021/12/01 08:10:36;;;;;;;1.10;0.83;;;6.80;99.90;;;;;;4992580;28;20176;-71
2021/12/01 08:13:01;;;;;;;2.60;0.80;;;6.90;99.90;;;;;;4995171;28;20509;-71
2021/12/01 08:15:28;;;;;;;1.47;1.10;;;7.00;99.90;;;;;;4997541;28;20176;-71
2021/12/01 08:17:54;;;;;;;0.70;0.50;;;7.30;99.90;;;;;;5001283;28;20210;-72
2021/12/01 08:20:20;;;;;;;0.60;0.50;;;8.10;99.90;;;;;;4999215;28;20448;-71
2021/12/01 08:22:46;;;;;;;1.90;0.90;;;9.00;99.90;;;;;;4998841;28;20442;-72
2021/12/01 08:25:13;;;;;;;3.70;0.80;;;9.70;99.90;;;;;;5001484;28;20437;-71
2021/12/01 08:27:38;;;;;;;0.60;0.50;;;9.70;99.90;;;;;;4996733;28;20570;-71
2021/12/01 08:30:06;;;;;;;0.60;0.50;;;9.20;99.90;;;;;;4997302;28;20446;-71
2021/12/01 08:32:31;;;;;;;0.97;0.70;;;8.70;99.90;;;;;;4984956;28;20499;-72
2021/12/01 08:34:57;;;;;;;1.40;0.70;;;8.40;99.90;;;;;;4997747;28;20441;-72
2021/12/01 08:37:23;;;;;;;0.60;0.50;;;8.30;99.90;;;;;;5009004;28;20202;-71
2021/12/01 08:39:50;;;;;;;0.90;0.60;;;8.20;99.90;;;;;;5003102;28;20171;-71
2021/12/01 08:42:17;;;;;;;1.10;0.70;;;8.20;99.90;;;;;;5008386;28;20190;-71
2021/12/01 08:44:45;;;;;;;0.70;0.60;;;8.20;99.90;;;;;;5000409;28;20529;-71
2021/12/01 08:47:16;;;;;;;1.00;0.70;;;8.10;99.90;;;;;;4997904;28;20828;-70
2021/12/01 08:49:42;;;;;;;0.50;0.50;;;8.00;99.90;;;;;;4997651;28;20477;-70
2021/12/01 08:52:08;;;;;;;0.73;0.70;;;8.00;99.90;;;;;;4999901;28;20450;-70
2021/12/01 08:54:34;;;;;;;0.60;0.57;;;8.00;99.90;;;;;;4995976;28;20446;-70
2021/12/01 08:57:01;;;;;;;1.23;0.90;;;8.10;99.90;;;;;;5008313;28;20473;-70
2021/12/01 08:59:27;;;;;;;1.23;0.67;;;8.10;99.90;;;;;;5000656;28;20796;-70
2021/12/01 09:01:52;;;;;;;0.80;0.60;;;8.10;99.90;;;;;;4993372;28;20450;-70
2021/12/01 09:04:19;;;;;;;0.70;0.70;;;8.20;99.90;;;;;;4999149;28;20436;-70
2021/12/01 09:06:44;;;;;;;0.87;0.60;;;8.60;99.90;;;;;;4996435;28;20226;-69
2021/12/01 09:09:17;;;;;;;0.73;0.57;;;10.00;99.90;;;;;;4998709;28;20446;-70
2021/12/01 09:11:43;;;;;;;0.97;0.80;;;11.60;99.90;;;;;;5000739;28;20178;-70
2021/12/01 09:14:09;;;;;;;0.80;0.70;;;12.40;99.90;;;;;;5004142;28;20442;-70
2021/12/01 09:16:34;;;;;;;0.70;0.60;;;12.20;99.90;;;;;;4996585;28;20470;-69
2021/12/01 09:19:01;;;;;;;0.77;0.77;;;12.80;99.90;;;;;;4996818;28;20186;-70
2021/12/01 09:21:26;;;;;;;1.37;0.70;;;12.60;99.90;;;;;;5010855;28;20179;-70
2021/12/01 09:23:52;;;;;;;0.50;0.50;;;11.70;99.90;;;;;;5001694;28;20434;-70
2021/12/01 09:26:18;;;;;;;0.90;0.90;;;11.00;99.90;;;;;;4998460;28;20210;-69
2021/12/01 09:28:44;;;;;;;0.53;0.53;;;10.50;99.90;;;;;;5000928;28;20252;-69
2021/12/01 09:31:09;;;;;;;0.93;0.67;;;9.90;99.90;;;;;;4998445;28;20265;-69
2021/12/01 09:33:35;;;;;;;0.70;0.67;;;9.60;99.90;;;;;;4997053;28;20176;-69
2021/12/01 09:36:02;;;;;;;0.70;0.60;;;9.40;99.90;;;;;;4998735;28;20250;-70
2021/12/01 09:38:28;;;;;;;1.10;1.00;;;9.30;99.90;;;;;;4983532;28;20215;-69
2021/12/01 09:40:57;;;;;;;2.00;0.60;;;9.20;99.90;;;;;;4999596;28;20952;-69
2021/12/01 09:43:25;;;;;;;0.60;0.60;;;9.10;99.90;;;;;;4997469;28;20426;-69
2021/12/01 09:45:52;;;;;;;1.00;0.70;;;9.00;99.90;;;;;;4999894;28;20453;-69
2021/12/01 09:48:19;;;;;;;1.03;0.93;;;9.00;99.90;;;;;;4993526;28;20441;-69
2021/12/01 09:50:45;;;;;;;0.50;0.50;;;9.10;99.90;;;;;;4992091;28;20430;-68
2021/12/01 09:53:10;;;;;;;1.07;0.83;;;9.00;99.90;;;;;;4995420;28;20445;-68
2021/12/01 09:55:36;;;;;;;2.17;1.20;;;8.90;99.90;;;;;;5001214;28;20819;-69
2021/12/01 09:58:06;;;;;;;0.60;0.60;;;9.00;99.90;;;;;;4994257;28;20183;-69
2021/12/01 10:00:34;;;;;;;0.60;0.57;;;9.00;99.90;;;;;;4999294;28;20317;-69
2021/12/01 10:03:00;;;;;;;1.60;0.93;;;9.00;99.90;;;;;;4993883;28;20442;-68
2021/12/01 10:05:44;;;;;;;0.43;0.40;;;9.00;99.90;;;;;;4989687;28;20519;-69
2021/12/01 10:08:16;;;;;;;0.70;0.60;;;9.10;99.90;;;;;;4990595;28;20237;-69
2021/12/01 10:10:42;;;;;;;0.70;0.70;;;9.10;99.90;;;;;;4992708;28;20537;-68
2021/12/01 10:13:08;;;;;;;0.73;0.60;;;9.10;99.90;;;;;;4992008;28;20983;-69
2021/12/01 10:15:34;;;;;;;0.50;0.50;;;9.10;99.90;;;;;;5003596;28;20511;-69
2021/12/01 10:18:13;;;;;;;0.80;0.70;;;9.10;99.90;;;;;;4992081;28;20470;-69
2021/12/01 10:20:43;;;;;;;2.70;0.70;;;9.10;99.90;;;;;;4991120;28;20233;-69
2021/12/01 10:23:16;;;;;;;2.17;1.60;;;9.10;99.90;;;;;;4999351;28;20441;-69
2021/12/01 10:25:43;;;;;;;1.63;0.80;;;9.10;99.90;;;;;;5002070;28;20472;-69
2021/12/01 10:28:13;;;;;;;0.90;0.90;;;9.10;99.90;;;;;;4990802;28;20529;-68
2021/12/01 10:30:44;;;;;;;2.20;0.77;;;9.20;99.90;;;;;;4997194;28;20430;-69
2021/12/01 10:33:12;;;;;;;1.17;0.40;;;9.30;99.90;;;;;;5005861;28;20465;-68
2021/12/01 10:35:39;;;;;;;0.60;0.40;;;9.30;99.90;;;;;;4995076;28;20799;-69
2021/12/01 10:38:07;;;;;;;0.50;0.50;;;9.40;99.90;;;;;;4998976;28;20458;-68
2021/12/01 10:40:34;;;;;;;0.77;0.77;;;9.40;99.90;;;;;;4989957;28;20957;-68
2021/12/01 10:43:04;;;;;;;1.00;0.80;;;9.50;99.90;;;;;;4999268;28;20438;-68
2021/12/01 10:45:45;;;;;;;1.80;0.60;;;9.60;99.90;;;;;;5001396;28;20457;-68
2021/12/01 10:48:23;;;;;;;0.70;0.70;;;9.80;99.90;;;;;;4998142;28;20434;-68
2021/12/01 10:50:49;;;;;;;1.70;0.50;;;10.10;99.90;;;;;;5018752;28;20843;-69
2021/12/01 10:53:19;;;;;;;0.50;0.50;;;10.00;99.90;;;;;;5000601;28;20465;-68
2021/12/01 10:56:02;;;;;;;1.00;0.90;;;9.90;99.90;;;;;;5001647;28;20898;-69
2021/12/01 10:58:39;;;;;;;1.00;0.50;;;9.90;99.90;;;;;;4985543;28;21062;-68
2021/12/01 11:01:17;;;;;;;0.63;0.57;;;9.90;99.90;;;;;;4999084;28;20560;-68
2021/12/01 11:03:45;;;;;;;0.73;0.70;;;10.00;99.90;;;;;;4998089;28;20425;-69
2021/12/01 11:06:23;;;;;;;0.70;0.70;;;10.00;99.90;;;;;;4997816;28;20461;-69
2021/12/01 11:08:58;;;;;;;1.00;0.80;;;9.90;99.90;;;;;;4995063;28;20430;-67
2021/12/01 11:11:34;;;;;;;0.70;0.60;;;9.80;99.90;;;;;;4995644;28;20572;-67
2021/12/01 11:14:18;;;;;;;0.70;0.70;;;9.80;99.90;;;;;;4992525;28;20862;-68
2021/12/01 11:16:45;;;;;;;1.40;0.90;;;9.90;99.90;;;;;;4994562;28;20983;-68
2021/12/01 11:19:12;;;;;;;11.83;10.60;;;9.90;99.90;;;;;;4999086;28;20430;-70
2021/12/01 11:21:39;;;;;;;1.20;1.03;;;10.10;99.90;;;;;;5001956;28;20426;-70
2021/12/01 11:24:13;;;;;;;0.90;0.90;;;10.20;99.90;;;;;;5005486;28;20945;-71
2021/12/01 11:26:43;;;;;;;1.30;1.10;;;10.00;99.90;;;;;;4998953;28;21087;-69
2021/12/01 11:29:12;;;;;;;0.90;0.90;;;9.80;99.90;;;;;;4997240;28;20453;-68
2021/12/01 11:31:42;;;;;;;1.73;1.33;;;9.80;99.90;;;;;;5002529;28;20517;-68
2021/12/01 11:34:13;;;;;;;1.13;1.03;;;9.80;99.90;;;;;;4992570;28;20435;-70
2021/12/01 11:36:51;;;;;;;0.90;0.80;;;10.20;99.90;;;;;;4995711;28;20468;-68
2021/12/01 11:39:26;;;;;;;0.73;0.73;;;10.60;99.90;;;;;;4997945;28;20439;-67
2021/12/01 11:41:54;;;;;;;0.70;0.60;;;10.90;99.90;;;;;;4999845;28;20962;-70
2021/12/01 11:44:20;;;;;;;0.63;0.60;;;11.10;99.90;;;;;;4996396;28;20444;-67
2021/12/01 11:46:50;;;;;;;1.53;0.63;;;11.40;99.90;;;;;;5003763;28;20560;-67
2021/12/01 11:49:18;;;;;;;0.87;0.83;;;11.60;99.90;;;;;;4997742;28;20453;-68
2021/12/01 11:51:52;;;;;;;0.70;0.70;;;11.40;99.90;;;;;;4994144;28;20474;-69
2021/12/01 11:54:20;;;;;;;0.80;0.80;;;11.20;99.90;;;;;;4997144;28;20441;-70
2021/12/01 11:56:56;;;;;;;0.70;0.60;;;11.30;99.90;;;;;;5003280;28;20461;-69
2021/12/01 11:59:27;;;;;;;1.50;0.97;;;11.20;99.90;;;;;;4997728;28;20435;-68
2021/12/01 12:01:56;;;;;;;0.60;0.60;;;10.90;99.90;;;;;;4984074;28;20799;-68
2021/12/01 12:04:28;;;;;;;1.20;1.00;;;10.80;99.90;;;;;;5001004;28;20426;-68
2021/12/01 12:07:05;;;;;;;0.90;0.90;;;10.60;99.90;;;;;;5000730;28;20920;-68
2021/12/01 12:09:31;;;;;;;1.20;0.80;;;10.60;99.90;;;;;;4996037;28;20414;-69
2021/12/01 12:12:00;;;;;;;1.07;1.00;;;10.70;99.90;;;;;;5006608;28;20429;-68
2021/12/01 12:14:34;;;;;;;1.10;0.90;;;10.60;99.90;;;;;;4999586;28;20832;-69
2021/12/01 12:17:14;;;;;;;1.67;1.10;;;10.80;99.90;;;;;;5001878;28;20985;-69
2021/12/01 12:20:03;;;;;;;0.93;0.93;;;11.10;99.90;;;;;;5012188;28;20444;-68
2021/12/01 12:22:52;;;;;;;1.40;0.80;;;11.10;99.90;;;;;;4998246;28;20430;-69
2021/12/01 12:25:44;;;;;;;0.80;0.70;;;11.10;99.90;;;;;;4982848;28;20427;-68
2021/12/01 12:28:22;;;;;;;1.17;1.07;;;10.90;99.90;;;;;;4989122;28;20456;-68
2021/12/01 12:30:48;;;;;;;1.53;1.00;;;10.30;99.90;;;;;;4998001;28;20445;-68
2021/12/01 12:33:29;;;;;;;2.20;0.97;;;10.00;99.90;;;;;;4998069;28;20442;-67
2021/12/01 12:36:08;;;;;;;5.40;1.37;;;9.80;99.90;;;;;;4996502;28;20278;-68
2021/12/01 12:38:34;;;;;;;1.47;1.37;;;9.70;99.90;;;;;;4998131;28;20497;-68
2021/12/01 12:41:13;;;;;;;1.40;1.30;;;9.60;99.90;;;;;;5001566;28;20465;-69
2021/12/01 12:43:43;;;;;;;1.30;1.07;;;9.40;99.90;;;;;;4998078;28;21202;-68
2021/12/01 12:46:12;;;;;;;6.77;2.83;;;9.30;99.90;;;;;;4996748;28;20947;-67
2021/12/01 12:48:41;;;;;;;2.53;1.43;;;9.20;99.90;;;;;;5002914;28;20441;-69
2021/12/01 12:51:13;;;;;;;1.50;1.40;;;9.10;99.90;;;;;;4997316;28;20989;-68
2021/12/01 12:54:04;;;;;;;1.60;1.50;;;9.00;99.90;;;;;;4998681;28;20569;-69
2021/12/01 12:56:36;;;;;;;2.67;2.10;;;8.80;99.90;;;;;;4993413;28;20838;-68
2021/12/01 12:59:26;;;;;;;4.10;2.97;;;8.80;99.90;;;;;;5007718;28;20482;-68
2021/12/01 13:01:56;;;;;;;2.60;1.60;;;8.70;99.90;;;;;;5000594;28;20493;-69
2021/12/01 13:04:51;;;;;;;2.00;1.90;;;8.60;99.90;;;;;;4997351;28;20435;-69
2021/12/01 13:07:31;;;;;;;2.37;1.40;;;8.50;99.90;;;;;;5005079;28;20450;-68